createdAt,value
2023-01-10T12:37:51.843Z,1011.21405
2023-01-10T12:39:15.984Z,1011.224548
2023-01-10T12:40:15.968Z,1011.133606
2023-01-10T12:41:15.943Z,1011.123413
2023-01-10T12:42:15.979Z,1011.112915
2023-01-10T12:43:16.001Z,1011.072998
2023-01-10T12:44:15.975Z,1011.09906
2023-01-10T12:45:16.170Z,1011.033264
2023-01-10T12:46:26.590Z,1011.113464
2023-01-10T12:47:16.032Z,1011.102051
2023-01-10T12:48:16.026Z,1011.090637
2023-01-10T12:49:16.009Z,1011.167969
2023-01-10T12:50:16.035Z,1011.085754
2023-01-10T12:51:16.021Z,1011.145081
2023-01-10T12:52:16.004Z,1011.174377
2023-01-10T12:53:16.034Z,1011.238586
2023-01-10T12:54:16.014Z,1011.128845
2023-01-10T12:55:16.159Z,1011.29657
2023-01-10T12:56:16.142Z,1011.274658
2023-01-10T12:57:16.228Z,1011.166382
2023-01-10T12:58:16.306Z,1011.118408
2023-01-10T12:59:17.143Z,1011.276855
2023-01-10T13:00:16.210Z,1011.32782
2023-01-10T13:01:16.539Z,1011.323303
2023-01-10T13:02:16.304Z,1011.322205
2023-01-10T13:03:16.107Z,1011.378906
2023-01-10T13:04:16.124Z,1011.374512
2023-01-10T13:05:16.238Z,1011.397339
2023-01-10T13:06:16.355Z,1011.327942
2023-01-10T13:07:16.130Z,1011.378113
2023-01-10T13:08:16.153Z,1011.407654
2023-01-10T13:09:16.297Z,1011.475159
2023-01-10T13:10:16.105Z,1011.36377
2023-01-10T13:11:16.215Z,1011.412842
2023-01-10T13:12:16.204Z,1011.443848
2023-01-10T13:13:16.331Z,1011.482056
2023-01-10T13:14:16.071Z,1011.457825
2023-01-10T13:15:16.310Z,1011.502991
2023-01-10T13:16:16.244Z,1011.566101
2023-01-10T13:17:16.132Z,1011.60498
2023-01-10T13:18:16.142Z,1011.686035
2023-01-10T13:19:16.229Z,1011.663452
2023-01-10T13:20:16.154Z,1011.635864
2023-01-10T13:21:16.114Z,1011.652161
2023-01-10T13:22:16.347Z,1011.669189
2023-01-10T13:23:16.265Z,1011.656555
2023-01-10T13:24:16.186Z,1011.652161
2023-01-10T13:25:16.376Z,1011.648682
2023-01-10T13:26:16.204Z,1011.652405
2023-01-10T13:27:16.208Z,1011.658142
2023-01-10T13:28:16.169Z,1011.667053
2023-01-10T13:29:16.151Z,1011.597046
2023-01-10T13:30:16.250Z,1011.639832
2023-01-10T13:31:16.280Z,1011.687317
2023-01-10T13:32:16.315Z,1011.71875
2023-01-10T13:33:16.231Z,1011.674683
2023-01-10T13:34:16.160Z,1011.656555
2023-01-10T13:35:16.264Z,1011.657837
2023-01-10T13:36:16.265Z,1011.734192
2023-01-10T13:37:16.266Z,1011.76001
2023-01-10T13:38:16.269Z,1011.639526
2023-01-10T13:39:16.148Z,1011.666565
2023-01-10T13:40:16.285Z,1011.659241
2023-01-10T13:41:16.345Z,1011.690308
2023-01-10T13:42:16.205Z,1011.645996
2023-01-10T13:43:16.329Z,1011.641357
2023-01-10T13:44:16.201Z,1011.704712
2023-01-10T13:45:16.375Z,1011.672363
2023-01-10T13:46:16.387Z,1011.740173
2023-01-10T13:47:16.246Z,1011.706848
2023-01-10T13:48:16.244Z,1011.712036
2023-01-10T13:49:16.221Z,1011.604126
2023-01-10T13:50:16.269Z,1011.604248
2023-01-10T13:51:16.264Z,1011.633728
2023-01-10T13:52:16.276Z,1011.646545
2023-01-10T13:53:16.255Z,1011.655151
2023-01-10T13:54:16.273Z,1011.741333
2023-01-10T13:55:16.303Z,1011.662598
2023-01-10T13:56:16.297Z,1011.726379
2023-01-10T13:57:16.320Z,1011.719238
2023-01-10T13:58:16.355Z,1011.761658
2023-01-10T13:59:16.385Z,1011.732361
2023-01-10T14:00:16.470Z,1011.409912
2023-01-10T14:01:16.456Z,1011.664246
2023-01-10T14:02:16.362Z,1011.735718
2023-01-10T14:03:16.360Z,1011.71814
2023-01-10T14:04:16.287Z,1011.726868
2023-01-10T14:05:16.374Z,1011.74939
2023-01-10T14:06:16.363Z,1011.712036
2023-01-10T14:07:16.403Z,1011.650391
2023-01-10T14:08:16.380Z,1011.769714
2023-01-10T14:09:16.398Z,1011.685364
2023-01-10T14:10:16.410Z,1011.678101
2023-01-10T14:11:16.279Z,1011.720459
2023-01-10T14:12:16.303Z,1011.766113
2023-01-10T14:13:16.352Z,1011.7453
2023-01-10T14:14:16.319Z,1011.744995
2023-01-10T14:15:16.334Z,1011.728149
2023-01-10T14:16:16.417Z,1011.710449
2023-01-10T14:17:16.310Z,1011.721558
2023-01-10T14:18:16.290Z,1011.737671
2023-01-10T14:19:16.366Z,1011.707092
2023-01-10T14:20:16.378Z,1011.761719
2023-01-10T14:21:16.403Z,1011.744507
2023-01-10T14:22:16.398Z,1011.793457
2023-01-10T14:23:16.386Z,1011.85498
2023-01-10T14:24:16.407Z,1011.672485
2023-01-10T14:25:16.383Z,1011.732056
2023-01-10T14:26:16.411Z,1011.687012
2023-01-10T14:27:16.426Z,1011.760498
2023-01-10T14:28:16.437Z,1011.735779
2023-01-10T14:29:16.458Z,1011.789978
2023-01-10T14:30:16.442Z,1011.849915
2023-01-10T14:31:16.485Z,1011.794678
2023-01-10T14:32:16.472Z,1011.817993
2023-01-10T14:33:16.464Z,1011.753967
2023-01-10T14:34:16.464Z,1011.792053
2023-01-10T14:35:16.470Z,1011.777344
2023-01-10T14:36:16.462Z,1011.776001
2023-01-10T14:37:16.493Z,1011.72876
2023-01-10T14:38:16.496Z,1011.737244
2023-01-10T14:39:16.398Z,1011.742798
2023-01-10T14:40:16.415Z,1011.702637
2023-01-10T14:41:16.423Z,1011.82312
2023-01-10T14:42:16.433Z,1011.786377
2023-01-10T14:43:16.410Z,1011.723694
2023-01-10T14:44:16.508Z,1011.690796
2023-01-10T14:45:16.442Z,1011.734131
2023-01-10T14:46:16.493Z,1011.746643
2023-01-10T14:47:16.458Z,1011.798584
2023-01-10T14:48:16.486Z,1011.785156
2023-01-10T14:49:16.469Z,1011.74939
2023-01-10T14:50:16.453Z,1011.720947
2023-01-10T14:51:16.506Z,1011.723694
2023-01-10T14:52:16.500Z,1011.762817
2023-01-10T14:53:16.516Z,1011.768188
2023-01-10T14:54:16.523Z,1011.677002
2023-01-10T14:55:16.523Z,1011.764038
2023-01-10T14:56:16.530Z,1011.790527
2023-01-10T14:57:16.504Z,1011.80249
2023-01-10T14:58:16.528Z,1011.779236
2023-01-10T14:59:16.575Z,1011.846863
2023-01-10T15:00:17.846Z,1011.87439
2023-01-10T15:01:16.611Z,1011.876648
2023-01-10T15:02:16.642Z,1011.871277
2023-01-10T15:03:16.574Z,1011.830811
2023-01-10T15:04:16.644Z,1011.852661
2023-01-10T15:05:16.598Z,1011.922363
2023-01-10T15:06:16.607Z,1011.872314
2023-01-10T15:07:16.500Z,1011.892212
2023-01-10T15:08:16.481Z,1011.830322
2023-01-10T15:09:16.523Z,1011.826416
2023-01-10T15:10:16.539Z,1011.823303
2023-01-10T15:11:16.531Z,1011.750916
2023-01-10T15:12:16.562Z,1011.783142
2023-01-10T15:13:16.579Z,1011.827209
2023-01-10T15:14:16.557Z,1011.789856
2023-01-10T15:15:16.564Z,1011.766663
2023-01-10T15:16:16.740Z,1011.720459
2023-01-10T15:17:18.174Z,1011.710938
2023-01-10T15:18:16.595Z,1011.731934
2023-01-10T15:19:16.615Z,1011.739319
2023-01-10T15:20:16.632Z,1011.699707
2023-01-10T15:21:17.196Z,1011.734558
2023-01-10T15:22:16.597Z,1011.735474
2023-01-10T15:23:16.618Z,1011.722656
2023-01-10T15:24:16.634Z,1011.794678
2023-01-10T15:25:16.629Z,1011.75415
2023-01-10T15:26:16.652Z,1011.777405
2023-01-10T15:27:16.642Z,1011.800476
2023-01-10T15:28:16.668Z,1011.80249
2023-01-10T15:29:16.663Z,1011.815796
2023-01-10T15:30:16.668Z,1011.834839
2023-01-10T15:31:16.736Z,1011.892822
2023-01-10T15:32:16.697Z,1011.86377
2023-01-10T15:33:16.723Z,1011.867004
2023-01-10T15:34:16.700Z,1011.838501
2023-01-10T15:35:20.409Z,1011.807373
2023-01-10T15:36:16.713Z,1011.779785
2023-01-10T15:37:16.717Z,1011.787964
2023-01-10T15:38:16.751Z,1011.784058
2023-01-10T15:39:16.730Z,1011.822815
2023-01-10T15:40:16.712Z,1011.732483
2023-01-10T15:41:16.648Z,1011.795471
2023-01-10T15:42:16.692Z,1011.784363
2023-01-10T15:43:16.695Z,1011.719971
2023-01-10T15:44:16.663Z,1011.746704
2023-01-10T15:45:16.696Z,1011.745239
2023-01-10T15:46:16.751Z,1011.777344
2023-01-10T15:47:16.687Z,1011.780945
2023-01-10T15:48:16.695Z,1011.764709
2023-01-10T15:49:16.722Z,1011.784363
2023-01-10T15:50:16.704Z,1011.825623
2023-01-10T15:51:16.753Z,1011.825073
2023-01-10T15:52:16.734Z,1011.904663
2023-01-10T15:53:16.746Z,1011.868286
2023-01-10T15:54:16.753Z,1011.940369
2023-01-10T15:55:16.764Z,1011.880493
2023-01-10T15:56:16.757Z,1011.887817
2023-01-10T15:57:16.764Z,1011.897034
2023-01-10T15:58:16.778Z,1011.899231
2023-01-10T15:59:16.778Z,1011.875488
2023-01-10T16:00:16.789Z,1011.864502
2023-01-10T16:01:16.963Z,1011.847046
2023-01-10T16:02:17.015Z,1011.848999
2023-01-10T16:03:17.009Z,1011.857971
2023-01-10T16:04:16.820Z,1011.834595
2023-01-10T16:05:16.843Z,1011.831421
2023-01-10T16:06:16.824Z,1011.867126
2023-01-10T16:07:16.833Z,1011.846802
2023-01-10T16:08:16.907Z,1011.878906
2023-01-10T16:09:16.852Z,1011.853271
2023-01-10T16:10:16.862Z,1011.869324
2023-01-10T16:11:16.861Z,1011.809326
2023-01-10T16:12:16.741Z,1011.833435
2023-01-10T16:13:16.872Z,1011.862671
2023-01-10T16:14:16.789Z,1011.903442
2023-01-10T16:15:16.797Z,1011.898132
2023-01-10T16:16:16.868Z,1011.861694
2023-01-10T16:17:16.803Z,1011.877563
2023-01-10T16:18:16.806Z,1011.771118
2023-01-10T16:19:16.789Z,1011.871887
2023-01-10T16:20:16.834Z,1011.838684
2023-01-10T16:21:16.853Z,1011.805054
2023-01-10T16:22:16.831Z,1011.790649
2023-01-10T16:23:16.847Z,1011.75061
2023-01-10T16:24:16.855Z,1011.773438
2023-01-10T16:25:16.864Z,1011.742432
2023-01-10T16:26:16.873Z,1011.720337
2023-01-10T16:27:16.877Z,1011.728699
2023-01-10T16:28:16.888Z,1011.679688
2023-01-10T16:29:16.834Z,1011.711975
2023-01-10T16:30:16.898Z,1011.6875
2023-01-10T16:31:16.926Z,1011.719238
2023-01-10T16:32:16.904Z,1011.743774
2023-01-10T16:33:16.918Z,1011.692444
2023-01-10T16:34:16.923Z,1011.662659
2023-01-10T16:35:18.450Z,1011.67157
2023-01-10T16:36:16.933Z,1011.66095
2023-01-10T16:37:16.958Z,1011.722351
2023-01-10T16:38:16.941Z,1011.689209
2023-01-10T16:39:16.991Z,1011.681396
2023-01-10T16:40:17.007Z,1011.664063
2023-01-10T16:41:16.961Z,1011.675842
2023-01-10T16:42:16.980Z,1011.657959
2023-01-10T16:43:16.991Z,1011.708191
2023-01-10T16:44:16.963Z,1011.695313
2023-01-10T16:45:17.003Z,1011.742249
2023-01-10T16:46:17.011Z,1011.71814
2023-01-10T16:47:16.913Z,1011.748901
2023-01-10T16:48:16.925Z,1011.756897
2023-01-10T16:49:16.922Z,1011.76947
2023-01-10T16:50:16.922Z,1011.757813
2023-01-10T16:51:16.944Z,1011.804077
2023-01-10T16:52:16.966Z,1011.776733
2023-01-10T16:53:16.986Z,1011.790955
2023-01-10T16:54:16.960Z,1011.843445
2023-01-10T16:55:17.021Z,1011.857605
2023-01-10T16:56:16.980Z,1011.72998
2023-01-10T16:57:17.000Z,1011.835144
2023-01-10T16:58:17.006Z,1011.784363
2023-01-10T16:59:17.003Z,1011.80719
2023-01-10T17:00:17.004Z,1011.773254
2023-01-10T17:01:17.113Z,1011.803467
2023-01-10T17:02:17.014Z,1011.709229
2023-01-10T17:03:17.035Z,1011.735535
2023-01-10T17:04:17.052Z,1011.796936
2023-01-10T17:05:17.059Z,1011.773071
2023-01-10T17:06:17.053Z,1011.618103
2023-01-10T17:07:17.054Z,1011.740295
2023-01-10T17:08:17.071Z,1011.676331
2023-01-10T17:09:17.108Z,1011.695251
2023-01-10T17:16:10.651Z,1011.770752
2023-01-10T17:17:10.576Z,1011.76001
2023-01-10T17:18:10.577Z,1011.7547
2023-01-10T17:19:10.560Z,1011.700378
2023-01-10T17:20:10.589Z,1011.706177
2023-01-10T17:21:10.609Z,1011.72998
2023-01-10T17:22:10.596Z,1011.637024
2023-01-10T17:23:10.595Z,1011.578979
2023-01-10T17:24:10.583Z,1011.672791
2023-01-10T17:25:10.620Z,1011.665466
2023-01-10T17:26:10.597Z,1011.618774
2023-01-10T17:27:10.604Z,1011.642212
2023-01-10T17:28:10.611Z,1011.719604
2023-01-10T17:29:10.599Z,1011.670654
2023-01-10T17:30:11.421Z,1011.707214
2023-01-10T17:31:10.613Z,1011.675781
2023-01-10T17:32:10.628Z,1011.722412
2023-01-10T17:33:10.643Z,1011.65625
2023-01-10T17:34:10.636Z,1011.672363
2023-01-10T17:35:10.648Z,1011.770874
2023-01-10T17:36:10.639Z,1011.749512
2023-01-10T17:37:10.669Z,1011.782837
2023-01-10T17:38:10.657Z,1011.79834
2023-01-10T17:39:10.649Z,1011.81842
2023-01-10T17:40:10.653Z,1011.800171
2023-01-10T17:41:10.685Z,1011.862366
2023-01-10T17:42:10.688Z,1011.862793
2023-01-10T17:43:10.673Z,1011.843567
2023-01-10T17:44:10.679Z,1011.827332
2023-01-10T17:45:10.654Z,1011.886414
2023-01-10T17:46:10.769Z,1011.765808
2023-01-10T17:47:10.705Z,1011.855469
2023-01-10T17:48:10.706Z,1011.805603
2023-01-10T17:49:13.187Z,1011.796814
2023-01-10T17:50:10.712Z,1011.803589
2023-01-10T17:51:10.695Z,1011.755066
2023-01-10T17:52:10.719Z,1011.770752
2023-01-10T17:53:10.716Z,1011.784302
2023-01-10T17:54:10.716Z,1011.699036
2023-01-10T17:55:10.715Z,1011.766113
2023-01-10T17:56:10.723Z,1011.763428
2023-01-10T17:57:10.746Z,1011.710449
2023-01-10T17:58:10.828Z,1011.729919
2023-01-10T17:59:10.732Z,1011.752808
2023-01-10T18:00:10.741Z,1011.656738
2023-01-10T18:01:10.843Z,1011.719299
2023-01-10T18:02:10.867Z,1011.71283
2023-01-10T18:03:10.820Z,1011.65625
2023-01-10T18:04:10.754Z,1011.747681
2023-01-10T18:05:10.751Z,1011.738098
2023-01-10T18:06:19.103Z,1011.700012
2023-01-10T18:07:12.886Z,1011.775146
2023-01-10T18:08:10.781Z,1011.664001
2023-01-10T18:09:10.784Z,1011.69281
2023-01-10T18:10:10.772Z,1011.734863
2023-01-10T18:11:10.785Z,1011.690186
2023-01-10T18:12:10.787Z,1011.765564
2023-01-10T18:13:10.823Z,1011.705627
2023-01-10T18:14:10.821Z,1011.697632
2023-01-10T18:15:10.809Z,1011.72467
2023-01-10T18:16:10.809Z,1011.690918
2023-01-10T18:17:10.813Z,1011.757202
2023-01-10T18:18:10.806Z,1011.68927
2023-01-10T18:19:10.837Z,1011.695251
2023-01-10T18:20:10.836Z,1011.680603
2023-01-10T18:21:10.813Z,1011.657898
2023-01-10T18:22:10.846Z,1011.722473
2023-01-10T18:23:10.844Z,1011.717346
2023-01-10T18:24:10.842Z,1011.700317
2023-01-10T18:25:10.840Z,1011.687317
2023-01-10T18:26:10.848Z,1011.651245
2023-01-10T18:27:10.848Z,1011.676392
2023-01-10T18:28:10.885Z,1011.721802
2023-01-10T18:29:10.880Z,1011.64502
2023-01-10T18:30:10.892Z,1011.630676
2023-01-10T18:31:10.957Z,1011.580383
2023-01-10T18:32:10.873Z,1011.648926
2023-01-10T18:33:10.879Z,1011.582886
2023-01-10T18:34:10.888Z,1011.631104
2023-01-10T18:35:10.895Z,1010.977661
2023-01-10T18:36:10.891Z,1011.684082
2023-01-10T18:37:10.887Z,1011.611389
2023-01-10T18:38:10.898Z,1011.632202
2023-01-10T18:39:10.915Z,1011.614014
2023-01-10T18:40:10.954Z,1011.647827
2023-01-10T18:41:10.903Z,1011.578918
2023-01-10T18:42:10.917Z,1011.326538
2023-01-10T18:43:10.898Z,1011.582764
2023-01-10T18:44:10.917Z,1011.552795
2023-01-10T18:45:10.935Z,1011.643372
2023-01-10T18:46:10.977Z,1011.587708
2023-01-10T18:47:10.922Z,1011.572632
2023-01-10T18:48:10.932Z,1011.193604
2023-01-10T18:49:10.955Z,1011.517029
2023-01-10T18:50:10.938Z,1011.529846
2023-01-10T18:51:10.952Z,1011.490173
2023-01-10T18:52:10.945Z,1011.482361
2023-01-10T18:53:10.948Z,1011.454285
2023-01-10T18:54:10.944Z,1011.390991
2023-01-10T18:55:10.985Z,1011.434937
2023-01-10T18:56:10.987Z,1011.425598
2023-01-10T18:57:10.995Z,1011.38092
2023-01-10T18:58:10.976Z,1011.481323
2023-01-10T18:59:10.971Z,1011.416382
2023-01-10T19:00:11.016Z,1011.482361
2023-01-10T19:01:11.094Z,1011.432678
2023-01-10T19:02:11.102Z,1011.407349
2023-01-10T19:03:11.003Z,1011.388733
2023-01-10T19:04:10.986Z,1011.333618
2023-01-10T19:05:11.061Z,1011.340942
2023-01-10T19:06:11.336Z,1011.414063
2023-01-10T19:07:11.007Z,1011.380798
2023-01-10T19:08:11.011Z,1011.343445
2023-01-10T19:09:12.517Z,1011.312317
2023-01-10T19:10:11.086Z,1011.327271
2023-01-10T19:11:14.194Z,1011.338806
2023-01-10T19:12:11.112Z,1011.367371
2023-01-10T19:13:11.024Z,1011.357483
2023-01-10T19:14:11.025Z,1011.348206
2023-01-10T19:15:11.028Z,1011.321167
2023-01-10T19:16:11.066Z,1011.349243
2023-01-10T19:17:11.077Z,1011.224854
2023-01-10T19:18:11.119Z,1011.293457
2023-01-10T19:19:11.079Z,1011.299133
2023-01-10T19:19:16.336Z,1011.317505
2023-01-10T19:25:15.511Z,1010.668701
2023-01-10T19:26:15.510Z,1011.233276
2023-01-10T19:27:15.492Z,1011.206421
2023-01-10T19:28:15.522Z,1011.244141
2023-01-10T19:29:15.522Z,1011.23468
2023-01-10T19:30:15.536Z,1011.188293
2023-01-10T19:31:15.580Z,1011.140808
2023-01-10T19:32:15.579Z,1011.125183
2023-01-10T19:33:15.552Z,1011.103149
2023-01-10T19:34:15.536Z,1011.144348
2023-01-10T19:35:15.605Z,1011.094238
2023-01-10T19:36:15.585Z,1011.172791
2023-01-10T19:37:15.585Z,1011.132813
2023-01-10T19:38:15.596Z,1011.114319
2023-01-10T19:39:15.604Z,1011.066956
2023-01-10T19:40:15.604Z,1011.054871
2023-01-10T19:41:15.597Z,1011.028931
2023-01-10T19:42:15.625Z,1011.029907
2023-01-10T19:43:15.625Z,1010.992981
2023-01-10T19:44:15.651Z,1010.954712
2023-01-10T19:45:15.641Z,1011.021423
2023-01-10T19:46:15.626Z,1010.948608
2023-01-10T19:47:15.550Z,1010.979431
2023-01-10T19:48:15.564Z,1010.984131
2023-01-10T19:49:15.576Z,1010.991882
2023-01-10T19:50:15.587Z,1010.974548
2023-01-10T19:51:15.591Z,1011.00592
2023-01-10T19:52:15.614Z,1011.018921
2023-01-10T19:53:15.618Z,1010.976196
2023-01-10T19:54:15.601Z,1011.017944
2023-01-10T19:55:15.622Z,1010.948059
2023-01-10T19:56:18.239Z,1010.975769
2023-01-10T19:57:15.644Z,1010.933777
2023-01-10T19:58:15.653Z,1010.891663
2023-01-10T19:59:15.610Z,1010.862488
2023-01-10T20:00:15.660Z,1010.897034
2023-01-10T20:01:15.669Z,1010.875916
2023-01-10T20:02:15.775Z,1010.915161
2023-01-10T20:03:15.681Z,1010.93042
2023-01-10T20:04:15.697Z,1010.832947
2023-01-10T20:05:16.675Z,1010.771729
2023-01-10T20:06:16.711Z,1010.792358
2023-01-10T20:07:17.908Z,1010.857605
2023-01-10T20:08:15.706Z,1010.76593
2023-01-10T20:09:15.716Z,1010.837952
2023-01-10T20:10:15.716Z,1010.778259
2023-01-10T20:11:15.745Z,1010.834045
2023-01-10T20:12:15.742Z,1010.807678
2023-01-10T20:13:15.716Z,1010.823425
2023-01-10T20:14:15.737Z,1010.785645
2023-01-10T20:15:15.760Z,1010.521545
2023-01-10T20:16:15.800Z,1010.703186
2023-01-10T20:17:15.769Z,1010.706543
2023-01-10T20:18:15.788Z,1010.756714
2023-01-10T20:19:21.641Z,1010.590637
2023-01-10T20:20:15.662Z,1010.683777
2023-01-10T20:21:15.809Z,1010.684692
2023-01-10T20:22:15.709Z,1010.733154
2023-01-10T20:23:15.812Z,1010.644226
2023-01-10T20:24:15.699Z,1010.60437
2023-01-10T20:25:15.727Z,1010.528687
2023-01-10T20:26:15.745Z,1010.621948
2023-01-10T20:27:15.760Z,1010.63562
2023-01-10T20:28:15.762Z,1010.659302
2023-01-10T20:29:15.763Z,1010.645935
2023-01-10T20:30:15.765Z,1010.586853
2023-01-10T20:31:15.758Z,1010.601746
2023-01-10T20:32:15.791Z,1010.575806
2023-01-10T20:33:15.798Z,1010.563049
2023-01-10T20:34:15.802Z,1010.576904
2023-01-10T20:35:15.835Z,1010.618103
2023-01-10T20:36:15.809Z,1010.598145
2023-01-10T20:37:15.826Z,1010.621582
2023-01-10T20:38:15.809Z,1010.621155
2023-01-10T20:39:15.836Z,1010.612061
2023-01-10T20:40:15.836Z,1010.532898
2023-01-10T20:41:15.848Z,1010.525757
2023-01-10T20:42:15.881Z,1010.523804
2023-01-10T20:43:15.878Z,1010.442017
2023-01-10T20:44:15.879Z,1010.414673
2023-01-10T20:45:15.848Z,1010.446228
2023-01-10T20:46:15.989Z,1010.470459
2023-01-10T20:47:15.808Z,1010.509399
2023-01-10T20:48:15.915Z,1010.453369
2023-01-10T20:49:15.871Z,1010.425476
2023-01-10T20:50:15.812Z,1010.510315
2023-01-10T20:51:15.845Z,1010.528259
2023-01-10T20:52:15.828Z,1010.557556
2023-01-10T20:53:15.836Z,1010.499939
2023-01-10T20:54:15.933Z,1010.526245
2023-01-10T20:55:15.850Z,1010.511536
2023-01-10T20:56:15.823Z,1010.494141
2023-01-10T20:57:15.857Z,1010.419983
2023-01-10T20:58:15.879Z,1010.39563
2023-01-10T20:59:15.843Z,1010.434814
2023-01-10T21:00:15.895Z,1010.514221
2023-01-10T21:01:25.134Z,1010.418884
2023-01-10T21:02:15.970Z,1010.450806
2023-01-10T21:03:15.959Z,1010.405334
2023-01-10T21:04:15.960Z,1010.432373
2023-01-10T21:05:15.957Z,1010.419434
2023-01-10T21:06:15.928Z,1010.390442
2023-01-10T21:07:15.890Z,1010.39624
2023-01-10T21:08:15.948Z,1010.324829
2023-01-10T21:09:15.945Z,1010.367004
2023-01-10T21:10:15.886Z,1010.357178
2023-01-10T21:11:15.885Z,1010.272583
2023-01-10T21:12:22.701Z,1010.348694
2023-01-10T21:13:16.000Z,1010.27533
2023-01-10T21:14:15.986Z,1010.304688
2023-01-10T21:15:16.002Z,1010.367554
2023-01-10T21:16:16.053Z,1010.318726
2023-01-10T21:17:16.007Z,1010.267944
2023-01-10T21:18:16.038Z,1010.334351
2023-01-10T21:19:16.037Z,1010.280762
2023-01-10T21:20:15.947Z,1010.345154
2023-01-10T21:21:15.947Z,1010.320923
2023-01-10T21:22:15.936Z,1010.328369
2023-01-10T21:23:15.975Z,1010.276855
2023-01-10T21:24:15.980Z,1010.277588
2023-01-10T21:25:15.961Z,1010.299561
2023-01-10T21:26:15.983Z,1010.230957
2023-01-10T21:27:15.981Z,1010.229919
2023-01-10T21:28:16.020Z,1010.200134
2023-01-10T21:29:15.951Z,1010.170532
2023-01-10T21:30:16.003Z,1010.185791
2023-01-10T21:31:16.082Z,1010.181702
2023-01-10T21:32:16.020Z,1010.10907
2023-01-10T21:33:16.030Z,1010.152527
2023-01-10T21:34:16.050Z,1010.182373
2023-01-10T21:35:16.065Z,1010.052185
2023-01-10T21:36:16.068Z,1010.028992
2023-01-10T21:37:16.099Z,1010.106262
2023-01-10T21:38:16.059Z,1010.103271
2023-01-10T21:39:16.111Z,1010.017578
2023-01-10T21:40:15.999Z,1010.026428
2023-01-10T21:41:16.091Z,1009.937988
2023-01-10T21:42:16.000Z,1009.934082
2023-01-10T21:43:16.093Z,1009.907288
2023-01-10T21:44:16.009Z,1009.974976
2023-01-10T21:45:16.133Z,1009.952576
2023-01-10T21:46:16.083Z,1009.918152
2023-01-10T21:47:16.017Z,1009.936279
2023-01-10T21:48:16.031Z,1009.889526
2023-01-10T21:49:16.046Z,1009.926392
2023-01-10T21:50:16.038Z,1009.955933
2023-01-10T21:51:16.048Z,1009.868286
2023-01-10T21:52:16.065Z,1009.879272
2023-01-10T21:53:16.076Z,1009.832581
2023-01-10T21:54:16.068Z,1009.868408
2023-01-10T21:55:16.126Z,1009.850342
2023-01-10T21:56:16.087Z,1009.864746
2023-01-10T21:57:16.094Z,1009.805786
2023-01-10T21:58:16.107Z,1009.830627
2023-01-10T21:59:16.106Z,1009.762817
2023-01-10T22:00:16.120Z,1009.726563
2023-01-10T22:01:16.187Z,1009.737366
2023-01-10T22:02:16.135Z,1009.733582
2023-01-10T22:03:16.134Z,1009.753052
2023-01-10T22:04:17.308Z,1009.771423
2023-01-10T22:05:16.160Z,1009.776489
2023-01-10T22:06:16.159Z,1009.738892
2023-01-10T22:07:16.158Z,1009.632019
2023-01-10T22:08:16.185Z,1009.668823
2023-01-10T22:09:16.190Z,1009.685913
2023-01-10T22:10:16.247Z,1009.646484
2023-01-10T22:11:16.238Z,1009.647827
2023-01-10T22:12:16.234Z,1009.641113
2023-01-10T22:13:16.135Z,1009.638916
2023-01-10T22:14:16.141Z,1009.584351
2023-01-10T22:15:16.232Z,1009.588074
2023-01-10T22:16:16.274Z,1009.587097
2023-01-10T22:17:16.235Z,1009.581421
2023-01-10T22:18:16.258Z,1009.61615
2023-01-10T22:19:16.149Z,1009.61438
2023-01-10T22:20:16.160Z,1009.607361
2023-01-10T22:21:16.162Z,1009.613892
2023-01-10T22:22:16.167Z,1009.627747
2023-01-10T22:23:16.184Z,1009.580994
2023-01-10T22:24:16.159Z,1009.542603
2023-01-10T22:25:16.230Z,1009.469971
2023-01-10T22:26:16.215Z,1009.471558
2023-01-10T22:27:16.220Z,1009.485474
2023-01-10T22:28:16.231Z,1009.507263
2023-01-10T22:28:16.332Z,1009.568604
2023-01-10T22:33:17.572Z,1009.437744
2023-01-10T22:38:18.642Z,1009.336487
2023-01-10T22:43:19.234Z,1009.270142
2023-01-10T22:48:19.843Z,1009.259399
2023-01-10T22:53:20.190Z,1009.172668
2023-01-10T22:58:20.636Z,1009.137268
2023-01-10T23:03:20.998Z,1009.090027
2023-01-10T23:08:21.534Z,1008.987488
2023-01-10T23:13:24.429Z,1008.976257
2023-01-10T23:18:28.953Z,1008.876587
2023-01-10T23:23:32.922Z,1008.638306
2023-01-10T23:28:34.664Z,1008.790283
2023-01-10T23:33:35.114Z,1008.678345
2023-01-10T23:38:38.031Z,1008.663879
2023-01-10T23:43:38.295Z,1008.572632
2023-01-10T23:48:38.863Z,1008.444824
2023-01-10T23:53:39.363Z,1008.371399
2023-01-10T23:58:40.014Z,1008.245911
